Time;durP1;ratioP1;P1;durP2;ratioP2;P2;SDS_P1;SDS_P2;PMS_P1;PMS_P2;Temp;Humidity;BMP_temperature;BMP_pressure;BME280_temperature;BME280_humidity;BME280_pressure;Samples;Min_cycle;Max_cycle;Signal;HPM_P1;HPM_P2
2022/05/29 05:55:21;;;;;;;2.75;1.10;;;;;;;;;;6196438;22;20357;-91
2022/05/29 05:57:46;;;;;;;1.10;0.85;;;;;;;;;;6190372;23;20150;-86
2022/05/29 06:00:14;;;;;;;0.73;0.70;;;;;;;;;;6204697;23;20041;-81
2022/05/29 06:02:41;;;;;;;1.23;0.80;;;;;;;;;;6187324;23;20004;-88
2022/05/29 06:05:11;;;;;;;1.10;1.00;;;;;;;;;;6188575;23;20442;-90
2022/05/29 06:07:37;;;;;;;1.50;0.85;;;;;;;;;;6188005;23;20036;-91
2022/05/29 06:10:06;;;;;;;0.88;0.88;;;;;;;;;;6199052;23;20059;-87
2022/05/29 06:12:31;;;;;;;1.25;0.93;;;;;;;;;;6198268;23;20128;-79
2022/05/29 06:14:58;;;;;;;1.83;0.90;;;;;;;;;;6185709;23;20422;-79
2022/05/29 06:17:24;;;;;;;1.60;0.90;;;;;;;;;;6185516;23;20052;-78
2022/05/29 09:19:41;;;;;;;1.80;1.70;;;;;;;;;;6248345;22;20493;-86
2022/05/29 09:22:36;;;;;;;2.05;1.45;;;;;;;;;;6216915;23;20019;-85
2022/05/29 09:25:09;;;;;;;2.88;1.80;;;;;;;;;;6182227;23;20012;-85
2022/05/29 09:27:38;;;;;;;1.92;1.50;;;;;;;;;;6186670;23;20068;-84
2022/05/29 09:30:05;;;;;;;1.52;1.40;;;;;;;;;;6186048;23;20009;-83
2022/05/29 09:32:33;;;;;;;2.88;1.60;;;;;;;;;;6188121;23;20008;-81
2022/05/29 09:35:25;;;;;;;2.60;1.40;;;;;;;;;;6187154;23;20037;-79
2022/05/29 09:38:25;;;;;;;2.25;1.50;;;;;;;;;;6186623;23;20473;-85
2022/05/29 09:41:05;;;;;;;1.17;1.15;;;;;;;;;;6183241;23;20013;-86
2022/05/29 09:43:31;;;;;;;2.13;1.50;;;;;;;;;;6160075;23;20005;-85
2022/05/29 09:46:20;;;;;;;2.03;1.45;;;;;;;;;;6186056;23;19997;-84
2022/05/29 09:51:53;;;;;;;1.67;1.57;;;;;;;;;;6186018;23;20011;-84
2022/05/29 09:54:32;;;;;;;1.55;1.20;;;;;;;;;;6185889;23;20001;-81
2022/05/29 09:57:10;;;;;;;1.95;1.55;;;;;;;;;;6186148;23;20439;-84
2022/05/29 09:59:43;;;;;;;3.15;1.95;;;;;;;;;;6185994;23;20008;-80
2022/05/29 10:02:27;;;;;;;1.92;1.60;;;;;;;;;;6186201;23;20003;-83
2022/05/29 10:04:57;;;;;;;1.75;1.50;;;;;;;;;;6185803;23;20420;-85
2022/05/29 10:07:35;;;;;;;2.05;1.40;;;;;;;;;;6185701;23;19997;-81
2022/05/29 10:10:07;;;;;;;1.38;1.27;;;;;;;;;;6185768;23;20008;-82
2022/05/29 10:12:38;;;;;;;1.30;1.20;;;;;;;;;;6186334;23;20001;-83
2022/05/29 10:15:07;;;;;;;1.90;1.50;;;;;;;;;;6187842;23;20001;-94
2022/05/29 10:17:38;;;;;;;2.72;1.20;;;;;;;;;;6200394;23;20005;-93
2022/05/29 10:20:34;;;;;;;2.30;1.30;;;;;;;;;;6196156;23;20086;-83
2022/05/29 10:23:05;;;;;;;1.80;1.33;;;;;;;;;;6195273;23;20035;-92
2022/05/29 10:26:01;;;;;;;3.13;2.08;;;;;;;;;;6193616;23;19997;-91
2022/05/29 10:28:34;;;;;;;3.05;2.22;;;;;;;;;;6199640;23;20429;-94
2022/05/29 10:31:04;;;;;;;3.10;1.63;;;;;;;;;;6192930;23;20005;-96
2022/05/29 10:33:33;;;;;;;1.85;1.60;;;;;;;;;;6188349;23;20012;-96
2022/05/29 10:36:15;;;;;;;3.43;1.50;;;;;;;;;;6187741;23;20008;-96
2022/05/29 10:38:42;;;;;;;1.73;1.63;;;;;;;;;;6161747;23;20092;-90
2022/05/29 10:41:12;;;;;;;2.03;1.80;;;;;;;;;;6187483;23;20439;-87
2022/05/29 10:43:44;;;;;;;3.28;1.73;;;;;;;;;;6188439;23;20005;-96
2022/05/29 10:46:16;;;;;;;2.63;1.60;;;;;;;;;;6187584;23;20001;-93
2022/05/29 10:49:00;;;;;;;2.35;1.70;;;;;;;;;;6166032;23;20005;-91
2022/05/29 10:51:35;;;;;;;2.70;1.40;;;;;;;;;;6187471;23;20011;-89
2022/05/29 10:54:09;;;;;;;2.40;1.77;;;;;;;;;;6186811;23;20076;-90
2022/05/29 10:56:59;;;;;;;2.10;1.90;;;;;;;;;;6187342;23;20014;-93
2022/05/29 10:59:40;;;;;;;1.50;1.40;;;;;;;;;;6190524;23;20359;-88
2022/05/29 11:05:53;;;;;;;1.50;1.40;;;;;;;;;;6198667;23;20095;-87
2022/05/29 11:08:43;;;;;;;1.80;1.70;;;;;;;;;;6192819;23;20001;-90
2022/05/29 11:11:19;;;;;;;2.10;1.35;;;;;;;;;;6277319;22;20043;-88
2022/05/29 11:14:00;;;;;;;2.58;1.50;;;;;;;;;;6250767;22;20334;-88
2022/05/29 11:17:03;;;;;;;2.08;1.60;;;;;;;;;;6251028;22;20012;-87
2022/05/29 11:20:01;;;;;;;1.50;1.40;;;;;;;;;;6247630;23;20466;-88
2022/05/29 11:22:36;;;;;;;1.73;1.52;;;;;;;;;;6248999;23;20008;-86
2022/05/29 11:25:32;;;;;;;1.70;1.60;;;;;;;;;;6248941;22;20000;-92
2022/05/29 11:28:13;;;;;;;3.88;1.60;;;;;;;;;;6223297;23;20012;-86
2022/05/29 11:31:05;;;;;;;3.28;2.70;;;;;;;;;;6249469;23;20145;-90
2022/05/29 11:34:14;;;;;;;4.13;1.80;;;;;;;;;;6253092;23;20454;-92
2022/05/29 11:36:40;;;;;;;;;;;;;;;;;;6254079;22;20079;-96
2022/05/29 11:39:43;;;;;;;2.20;2.00;;;;;;;;;;6253719;23;20226;-89
2022/05/29 11:42:20;;;;;;;2.47;2.25;;;;;;;;;;6252958;23;20493;-86
2022/05/29 11:44:58;;;;;;;1.83;1.50;;;;;;;;;;6251820;22;20022;-96
2022/05/29 11:53:31;;;;;;;3.22;1.52;;;;;;;;;;6251198;23;20012;-92
2022/05/29 11:56:00;;;;;;;1.65;1.40;;;;;;;;;;6251284;22;20008;-85
2022/05/29 11:58:37;;;;;;;1.70;1.60;;;;;;;;;;6247911;23;20381;-85
2022/05/29 12:01:10;;;;;;;2.22;1.50;;;;;;;;;;6248122;23;20008;-85
2022/05/29 12:03:43;;;;;;;1.55;1.45;;;;;;;;;;6248944;23;20027;-95
2022/05/29 12:06:19;;;;;;;4.63;3.83;;;;;;;;;;6248396;22;20423;-91
2022/05/29 12:09:03;;;;;;;4.32;2.80;;;;;;;;;;6251407;23;20004;-88
2022/05/29 12:11:47;;;;;;;2.13;1.55;;;;;;;;;;6248316;23;20019;-92
2022/05/29 12:14:24;;;;;;;3.30;1.50;;;;;;;;;;6249497;23;20473;-87
2022/05/29 12:17:25;;;;;;;1.60;1.50;;;;;;;;;;6250679;23;20009;-88
2022/05/29 12:19:58;;;;;;;1.77;1.67;;;;;;;;;;6248156;23;20030;-84
2022/05/29 12:22:28;;;;;;;3.05;1.38;;;;;;;;;;6247679;23;20000;-83
2022/05/29 12:24:56;;;;;;;1.67;1.58;;;;;;;;;;6249208;22;20005;-94
2022/05/29 12:27:24;;;;;;;1.65;1.40;;;;;;;;;;6249111;23;20504;-91
2022/05/29 12:30:21;;;;;;;1.65;1.52;;;;;;;;;;6250119;23;20000;-89
2022/05/29 12:32:46;;;;;;;1.80;1.60;;;;;;;;;;6249958;23;20015;-93
2022/05/29 12:35:27;;;;;;;1.92;1.23;;;;;;;;;;6251957;22;20065;-86
2022/05/29 12:38:17;;;;;;;2.10;1.42;;;;;;;;;;6251689;23;20004;-95
2022/05/29 12:41:17;;;;;;;2.22;1.40;;;;;;;;;;6256534;23;20062;-95
2022/05/29 12:43:46;;;;;;;2.17;1.50;;;;;;;;;;6256979;23;20001;-94
2022/05/29 12:46:19;;;;;;;1.50;1.40;;;;;;;;;;6260257;22;20068;-93
2022/05/29 12:48:57;;;;;;;2.45;1.70;;;;;;;;;;6245416;23;20003;-80
2022/05/29 12:52:07;;;;;;;1.77;1.60;;;;;;;;;;6268339;23;20011;-94
2022/05/29 12:54:41;;;;;;;2.95;1.55;;;;;;;;;;6147680;23;20006;-88
2022/05/29 12:57:29;;;;;;;1.67;1.58;;;;;;;;;;6134768;23;20032;-96
2022/05/29 13:00:00;;;;;;;1.92;1.83;;;;;;;;;;6132547;23;20064;-96
2022/05/29 13:02:44;;;;;;;2.72;1.88;;;;;;;;;;6132779;23;20014;-93
2022/05/29 13:05:31;;;;;;;1.40;1.30;;;;;;;;;;6130073;23;20006;-93
2022/05/29 13:08:06;;;;;;;1.50;1.40;;;;;;;;;;6136224;23;20006;-96
2022/05/29 13:10:36;;;;;;;2.08;1.40;;;;;;;;;;6128869;23;20045;-88
2022/05/29 13:13:08;;;;;;;1.83;1.45;;;;;;;;;;6126937;23;20065;-77
2022/05/29 13:15:36;;;;;;;1.70;1.40;;;;;;;;;;6126638;23;20034;-82
2022/05/29 13:18:25;;;;;;;1.60;1.33;;;;;;;;;;6129153;23;20014;-81
2022/05/29 13:21:12;;;;;;;1.70;1.52;;;;;;;;;;6125976;23;20001;-78
2022/05/29 13:23:45;;;;;;;2.58;1.27;;;;;;;;;;6124601;23;20050;-79
2022/05/29 13:26:17;;;;;;;3.53;3.22;;;;;;;;;;6208717;23;20031;-80
2022/05/29 13:28:43;;;;;;;3.13;1.90;;;;;;;;;;6216850;23;19997;-77
2022/05/29 13:31:17;;;;;;;2.50;1.60;;;;;;;;;;6216885;23;20009;-77
2022/05/29 13:33:42;;;;;;;1.40;1.27;;;;;;;;;;6216653;23;20032;-82
2022/05/29 13:36:09;;;;;;;1.40;1.30;;;;;;;;;;6216748;23;20001;-81
2022/05/29 13:38:43;;;;;;;1.50;1.40;;;;;;;;;;6217026;23;20058;-79
2022/05/29 13:41:12;;;;;;;1.70;1.60;;;;;;;;;;6217107;23;20013;-80
2022/05/29 13:43:39;;;;;;;1.60;1.50;;;;;;;;;;6216662;23;20009;-81
2022/05/29 13:46:16;;;;;;;1.27;1.17;;;;;;;;;;6216484;23;20008;-82
2022/05/29 13:49:03;;;;;;;2.95;2.33;;;;;;;;;;6216392;23;20011;-77
2022/05/29 13:51:36;;;;;;;4.18;1.30;;;;;;;;;;6216519;23;20001;-80
2022/05/29 13:54:05;;;;;;;2.70;1.08;;;;;;;;;;6217127;23;19997;-82
2022/05/29 13:57:11;;;;;;;1.88;1.40;;;;;;;;;;6216588;23;20008;-82
2022/05/29 14:05:46;;;;;;;1.20;1.05;;;;;;;;;;6216806;23;20563;-83
2022/05/29 14:08:20;;;;;;;1.60;1.50;;;;;;;;;;6217583;23;20430;-83
2022/05/29 14:11:11;;;;;;;1.50;1.27;;;;;;;;;;6202350;23;20028;-84
2022/05/29 14:13:43;;;;;;;1.92;1.52;;;;;;;;;;6231084;23;20012;-86
2022/05/29 14:16:31;;;;;;;1.50;1.40;;;;;;;;;;6246933;22;20004;-86
2022/05/29 14:19:19;;;;;;;1.40;1.20;;;;;;;;;;6221216;23;20371;-89
2022/05/29 14:22:03;;;;;;;1.27;1.17;;;;;;;;;;6249162;23;20000;-86
2022/05/29 14:24:38;;;;;;;2.03;1.48;;;;;;;;;;6248441;22;20058;-83
2022/05/29 14:27:29;;;;;;;2.45;1.15;;;;;;;;;;6248913;23;20010;-89
2022/05/29 14:30:19;;;;;;;1.52;1.20;;;;;;;;;;6171816;23;20004;-87
2022/05/29 14:33:07;;;;;;;3.25;1.67;;;;;;;;;;6178539;23;20570;-88
2022/05/29 14:35:51;;;;;;;1.65;1.45;;;;;;;;;;6249164;22;20004;-84
2022/05/29 14:38:35;;;;;;;1.48;1.38;;;;;;;;;;6221197;23;20011;-85
2022/05/29 14:41:13;;;;;;;4.10;1.60;;;;;;;;;;6248846;23;20011;-81
2022/05/29 14:43:40;;;;;;;1.40;1.23;;;;;;;;;;6248976;23;20424;-87
2022/05/29 14:49:31;;;;;;;1.80;1.70;;;;;;;;;;6095690;23;20093;-81
2022/05/29 14:52:06;;;;;;;1.60;1.40;;;;;;;;;;6095431;23;20006;-87
2022/05/29 14:54:39;;;;;;;1.75;1.50;;;;;;;;;;6097136;23;20003;-81
2022/05/29 14:57:16;;;;;;;3.35;1.55;;;;;;;;;;6099137;23;20010;-83
2022/05/29 14:59:42;;;;;;;1.52;1.42;;;;;;;;;;6097274;23;20010;-83
2022/05/29 15:02:21;;;;;;;2.08;1.90;;;;;;;;;;6097768;23;20038;-87
2022/05/29 15:04:49;;;;;;;2.55;2.35;;;;;;;;;;6213020;22;20020;-86
2022/05/29 15:10:36;;;;;;;1.60;1.50;;;;;;;;;;6249838;23;20015;-82
2022/05/29 15:13:02;;;;;;;2.50;1.45;;;;;;;;;;6248894;23;20008;-83
2022/05/29 15:15:31;;;;;;;1.60;1.50;;;;;;;;;;6248697;22;20319;-81
2022/05/29 15:18:12;;;;;;;1.73;1.40;;;;;;;;;;6249045;23;20012;-80
2022/05/29 15:26:17;;;;;;;2.95;1.50;;;;;;;;;;6249607;22;20007;-80
2022/05/29 15:28:48;;;;;;;1.50;1.40;;;;;;;;;;6248394;23;20023;-78
2022/05/29 15:31:21;;;;;;;1.95;1.33;;;;;;;;;;6248063;23;20000;-81
2022/05/29 15:34:21;;;;;;;3.63;1.20;;;;;;;;;;6248499;23;20000;-80
2022/05/29 15:36:47;;;;;;;1.58;1.40;;;;;;;;;;6232363;22;20089;-77
2022/05/29 15:39:40;;;;;;;3.03;2.15;;;;;;;;;;6248881;23;20004;-83
2022/05/29 15:42:10;;;;;;;2.20;2.00;;;;;;;;;;6249347;23;20004;-88
2022/05/29 15:45:19;;;;;;;3.25;2.95;;;;;;;;;;6249049;22;20008;-80
2022/05/29 15:47:59;;;;;;;2.40;2.20;;;;;;;;;;6248019;23;20014;-83
2022/05/29 15:50:52;;;;;;;1.55;1.40;;;;;;;;;;6248420;23;20004;-77
2022/05/29 15:53:33;;;;;;;1.67;1.58;;;;;;;;;;6248594;23;20031;-78
2022/05/29 15:56:22;;;;;;;1.70;1.50;;;;;;;;;;6247924;22;20004;-78
2022/05/29 15:59:11;;;;;;;5.00;1.40;;;;;;;;;;6247926;23;20050;-83
2022/05/29 16:02:02;;;;;;;4.23;1.33;;;;;;;;;;6248199;23;20011;-78
2022/05/29 16:04:43;;;;;;;1.30;1.20;;;;;;;;;;6247552;22;20245;-78
2022/05/29 16:07:13;;;;;;;1.23;1.10;;;;;;;;;;6247834;23;20411;-78
2022/05/29 16:10:00;;;;;;;1.60;1.20;;;;;;;;;;6247502;23;20016;-85
2022/05/29 16:12:29;;;;;;;1.77;1.30;;;;;;;;;;6247847;23;20000;-78
2022/05/29 16:14:55;;;;;;;1.30;1.20;;;;;;;;;;6247763;22;20008;-78
2022/05/29 16:17:32;;;;;;;2.45;1.17;;;;;;;;;;6247878;23;20000;-79
2022/05/29 16:20:08;;;;;;;1.45;1.35;;;;;;;;;;6248086;23;20000;-78
2022/05/29 16:22:46;;;;;;;1.33;1.23;;;;;;;;;;6247945;23;20324;-78
2022/05/29 16:25:36;;;;;;;2.08;1.33;;;;;;;;;;6247819;22;20366;-85
2022/05/29 16:28:12;;;;;;;1.50;1.40;;;;;;;;;;6232575;23;20000;-80
2022/05/29 16:31:08;;;;;;;2.33;1.73;;;;;;;;;;6249307;23;20134;-83
2022/05/29 16:33:46;;;;;;;1.70;1.60;;;;;;;;;;6197893;23;20044;-78
2022/05/29 16:36:36;;;;;;;2.17;1.50;;;;;;;;;;6247782;22;20000;-81
2022/05/29 16:50:47;;;;;;;1.48;1.38;;;;;;;;;;6248486;23;20099;-93
2022/05/29 16:53:15;;;;;;;4.10;1.58;;;;;;;;;;6248209;23;20076;-77
2022/05/29 16:55:48;;;;;;;1.30;1.20;;;;;;;;;;6248230;22;20004;-78
2022/05/29 16:58:23;;;;;;;1.50;1.40;;;;;;;;;;6248120;23;20046;-80
2022/05/29 17:01:02;;;;;;;1.95;1.40;;;;;;;;;;6247990;23;20423;-80
2022/05/29 17:03:45;;;;;;;4.18;3.35;;;;;;;;;;6248080;23;20019;-78
2022/05/29 17:06:13;;;;;;;3.25;2.20;;;;;;;;;;6251657;22;20008;-80
2022/05/29 17:09:26;;;;;;;2.78;1.20;;;;;;;;;;6248405;23;20008;-90
2022/05/29 17:11:53;;;;;;;1.77;0.93;;;;;;;;;;6250589;23;20522;-84
2022/05/29 17:14:19;;;;;;;3.42;1.00;;;;;;;;;;6247433;23;20011;-96
2022/05/29 17:16:44;;;;;;;3.90;1.23;;;;;;;;;;6247688;22;20094;-78
2022/05/29 17:19:12;;;;;;;1.10;1.00;;;;;;;;;;6248328;23;20097;-86
2022/05/29 17:21:45;;;;;;;0.95;0.95;;;;;;;;;;6248506;23;20008;-87
2022/05/29 17:24:40;;;;;;;1.63;1.00;;;;;;;;;;6249823;23;20071;-93
2022/05/29 17:27:23;;;;;;;3.67;2.83;;;;;;;;;;6248201;23;20004;-92
2022/05/29 17:30:08;;;;;;;1.15;1.05;;;;;;;;;;6247654;23;20004;-92
2022/05/29 17:32:43;;;;;;;1.20;1.10;;;;;;;;;;6248967;23;20008;-91
2022/05/29 17:35:15;;;;;;;3.53;1.10;;;;;;;;;;6249350;22;19996;-92
2022/05/29 17:38:18;;;;;;;0.98;0.90;;;;;;;;;;6248331;23;20079;-94
2022/05/29 17:40:43;;;;;;;1.42;0.90;;;;;;;;;;6249069;23;20021;-87
2022/05/29 17:43:09;;;;;;;0.82;0.82;;;;;;;;;;6248693;23;20343;-88
2022/05/29 17:45:36;;;;;;;1.48;1.08;;;;;;;;;;6250295;22;20012;-83
2022/05/29 17:48:13;;;;;;;1.05;0.95;;;;;;;;;;6248783;23;20416;-78
2022/05/29 17:51:04;;;;;;;3.00;1.30;;;;;;;;;;6248643;23;20004;-77
2022/05/29 17:53:35;;;;;;;1.30;1.17;;;;;;;;;;6248723;23;20011;-90
2022/05/29 17:56:01;;;;;;;1.83;1.10;;;;;;;;;;6247828;22;20004;-88
2022/05/29 17:58:27;;;;;;;1.38;0.80;;;;;;;;;;6247020;23;20011;-89
2022/05/29 18:00:52;;;;;;;0.80;0.80;;;;;;;;;;6247079;23;20008;-90
2022/05/29 18:03:22;;;;;;;2.42;0.82;;;;;;;;;;6247211;23;20004;-89
2022/05/29 18:05:51;;;;;;;2.42;1.80;;;;;;;;;;6247144;22;20439;-82
2022/05/29 18:08:18;;;;;;;2.95;1.30;;;;;;;;;;6247458;23;20327;-80
2022/05/29 18:10:48;;;;;;;0.85;0.82;;;;;;;;;;6246911;23;20008;-79
2022/05/29 18:13:13;;;;;;;1.92;0.77;;;;;;;;;;6247586;23;20035;-86
2022/05/29 18:15:39;;;;;;;0.98;0.98;;;;;;;;;;6248284;22;20004;-83
2022/05/29 18:18:05;;;;;;;3.83;1.02;;;;;;;;;;6248547;23;20004;-83
2022/05/29 18:20:31;;;;;;;1.23;0.80;;;;;;;;;;6248911;23;20008;-79
2022/05/29 18:22:56;;;;;;;1.13;0.70;;;;;;;;;;6248384;23;20300;-79
2022/05/29 18:25:23;;;;;;;5.47;3.67;;;;;;;;;;6248829;22;20004;-81
2022/05/29 18:27:49;;;;;;;2.28;2.05;;;;;;;;;;6251070;23;20004;-77
2022/05/29 18:30:18;;;;;;;5.03;1.60;;;;;;;;;;6248334;23;20411;-82
2022/05/29 18:32:50;;;;;;;1.50;1.40;;;;;;;;;;6260676;23;20309;-90
2022/05/29 18:35:18;;;;;;;1.00;0.90;;;;;;;;;;6255144;22;20030;-92
2022/05/29 18:37:48;;;;;;;2.80;1.52;;;;;;;;;;6253399;23;20000;-90
2022/05/29 18:40:15;;;;;;;1.63;1.20;;;;;;;;;;6252491;23;20011;-90
2022/05/29 18:42:41;;;;;;;1.30;0.88;;;;;;;;;;6252266;23;20472;-92
2022/05/29 18:45:09;;;;;;;1.70;1.55;;;;;;;;;;6250182;22;20000;-91
2022/05/29 18:47:34;;;;;;;1.85;1.67;;;;;;;;;;6248206;23;20015;-89
2022/05/29 18:50:00;;;;;;;1.58;1.05;;;;;;;;;;6248090;23;20082;-93
2022/05/29 18:52:25;;;;;;;1.10;1.00;;;;;;;;;;6247601;23;20008;-94
2022/05/29 18:54:51;;;;;;;3.33;1.05;;;;;;;;;;6247360;22;20428;-83
2022/05/29 18:57:17;;;;;;;1.30;0.70;;;;;;;;;;6246305;23;20312;-91
2022/05/29 18:59:48;;;;;;;1.63;0.73;;;;;;;;;;6248445;23;20373;-87
2022/05/29 19:02:15;;;;;;;0.60;0.60;;;;;;;;;;6247733;23;20000;-88
2022/05/29 19:04:41;;;;;;;0.70;0.70;;;;;;;;;;6247602;22;20049;-90
2022/05/29 19:07:06;;;;;;;1.15;0.90;;;;;;;;;;6248005;23;20010;-90
2022/05/29 19:09:32;;;;;;;0.70;0.70;;;;;;;;;;6247776;23;20000;-84
2022/05/29 19:12:06;;;;;;;1.05;0.98;;;;;;;;;;6257317;23;20000;-83
2022/05/29 19:14:33;;;;;;;2.28;0.80;;;;;;;;;;6247243;22;20087;-81
2022/05/29 19:16:59;;;;;;;1.23;0.90;;;;;;;;;;6246174;23;20007;-83
2022/05/29 19:19:28;;;;;;;0.70;0.70;;;;;;;;;;6246464;23;20004;-84
2022/05/29 19:21:54;;;;;;;2.63;0.98;;;;;;;;;;6246578;23;20423;-85
2022/05/29 19:24:23;;;;;;;2.30;0.85;;;;;;;;;;6246400;23;20019;-90
2022/05/29 19:26:49;;;;;;;1.42;0.80;;;;;;;;;;6247481;23;20415;-86
2022/05/29 19:29:16;;;;;;;1.38;0.80;;;;;;;;;;6247988;23;20100;-81
2022/05/29 19:31:46;;;;;;;1.40;1.30;;;;;;;;;;6246767;23;20079;-80
2022/05/29 19:34:13;;;;;;;1.58;1.23;;;;;;;;;;6246645;23;20012;-83
2022/05/29 19:36:43;;;;;;;3.08;1.20;;;;;;;;;;6246129;22;20089;-82
2022/05/29 19:39:11;;;;;;;0.90;0.90;;;;;;;;;;6246969;23;20058;-83
2022/05/29 19:41:37;;;;;;;1.70;0.93;;;;;;;;;;6249274;23;20053;-79
2022/05/29 19:44:03;;;;;;;1.92;1.05;;;;;;;;;;6248824;23;20000;-79
2022/05/29 19:46:30;;;;;;;2.83;1.30;;;;;;;;;;6224216;23;20055;-82
2022/05/29 19:48:57;;;;;;;0.90;0.80;;;;;;;;;;6250212;23;20005;-82
2022/05/29 19:51:26;;;;;;;2.28;1.13;;;;;;;;;;6255273;23;20004;-78
2022/05/29 19:53:53;;;;;;;1.55;1.10;;;;;;;;;;6226302;23;20446;-89
2022/05/29 19:56:19;;;;;;;1.13;1.00;;;;;;;;;;6260379;22;20004;-90
2022/05/29 19:58:46;;;;;;;2.00;1.00;;;;;;;;;;6255726;23;20008;-85
2022/05/29 20:01:24;;;;;;;1.67;1.42;;;;;;;;;;6266590;23;20058;-77
2022/05/29 20:03:54;;;;;;;1.52;1.20;;;;;;;;;;6234015;23;20027;-93
2022/05/29 20:06:24;;;;;;;1.77;1.20;;;;;;;;;;6260938;22;20083;-81
2022/05/29 20:08:51;;;;;;;3.65;1.35;;;;;;;;;;6263901;23;20016;-86
2022/05/29 20:11:38;;;;;;;1.10;1.00;;;;;;;;;;6262576;23;20008;-80
2022/05/29 20:14:07;;;;;;;;;;;;;;;;;;6268733;23;20012;-77
2022/05/29 20:16:52;;;;;;;1.48;1.30;;;;;;;;;;6251210;22;19961;-86
2022/05/29 20:19:18;;;;;;;2.38;1.08;;;;;;;;;;6249683;23;20008;-77
2022/05/29 20:21:44;;;;;;;0.82;0.82;;;;;;;;;;6247818;23;20083;-88
2022/05/29 20:24:16;;;;;;;2.35;1.15;;;;;;;;;;6248495;23;20333;-79
2022/05/29 20:26:43;;;;;;;2.05;1.05;;;;;;;;;;6221424;23;20359;-80
2022/05/29 20:29:08;;;;;;;1.67;1.35;;;;;;;;;;6250322;23;20007;-94
2022/05/29 20:31:46;;;;;;;1.30;1.10;;;;;;;;;;6261900;23;20005;-77
2022/05/29 20:34:14;;;;;;;1.15;1.00;;;;;;;;;;6296367;22;20015;-77
2022/05/29 20:36:55;;;;;;;0.88;0.80;;;;;;;;;;6259702;23;20016;-95
2022/05/29 20:39:41;;;;;;;2.13;1.10;;;;;;;;;;6241225;23;20012;-77
2022/05/29 20:42:11;;;;;;;2.60;1.10;;;;;;;;;;6272824;23;19988;-84
2022/05/29 20:44:48;;;;;;;2.65;1.13;;;;;;;;;;6266770;23;20004;-77
2022/05/29 20:47:29;;;;;;;1.27;1.17;;;;;;;;;;6268947;23;20327;-94
2022/05/29 20:50:15;;;;;;;1.77;1.60;;;;;;;;;;6271314;23;19992;-76
2022/05/29 20:53:23;;;;;;;2.20;1.08;;;;;;;;;;6269294;23;20024;-76
2022/05/29 20:56:16;;;;;;;1.52;1.00;;;;;;;;;;6278695;22;20024;-75
2022/05/29 20:58:54;;;;;;;1.67;1.20;;;;;;;;;;6242381;23;20004;-77
2022/05/29 21:01:22;;;;;;;1.15;1.05;;;;;;;;;;6276977;22;20015;-94
2022/05/29 21:03:48;;;;;;;2.30;1.20;;;;;;;;;;6279369;22;20023;-93
2022/05/29 21:06:14;;;;;;;4.43;1.20;;;;;;;;;;6258598;22;20007;-94
2022/05/29 21:08:41;;;;;;;1.27;1.05;;;;;;;;;;6254811;22;20007;-96
2022/05/29 21:11:07;;;;;;;1.60;1.23;;;;;;;;;;6253328;22;20065;-93
2022/05/29 21:13:35;;;;;;;2.53;1.20;;;;;;;;;;6260543;22;20011;-93
2022/05/29 21:16:14;;;;;;;1.95;0.93;;;;;;;;;;6267668;22;20415;-90
2022/05/29 21:18:40;;;;;;;1.50;1.23;;;;;;;;;;6269037;22;20032;-79
2022/05/29 21:21:12;;;;;;;2.65;1.00;;;;;;;;;;6267490;22;20004;-76
2022/05/29 21:23:38;;;;;;;2.08;1.88;;;;;;;;;;6266395;22;20004;-77
2022/05/29 21:26:14;;;;;;;5.15;1.40;;;;;;;;;;6268224;22;20015;-76
2022/05/29 21:29:06;;;;;;;2.38;1.40;;;;;;;;;;6270573;22;20012;-75
2022/05/29 21:31:47;;;;;;;1.30;1.20;;;;;;;;;;6302209;22;20012;-76
2022/05/29 21:35:23;;;;;;;2.25;0.90;;;;;;;;;;6299374;22;20033;-76
2022/05/29 21:38:07;;;;;;;2.80;1.20;;;;;;;;;;6271788;23;20000;-76
2022/05/29 21:41:19;;;;;;;1.42;1.10;;;;;;;;;;6253017;23;20016;-76
2022/05/29 21:44:08;;;;;;;1.52;1.25;;;;;;;;;;6270284;23;20004;-76
2022/05/29 21:46:46;;;;;;;2.63;1.30;;;;;;;;;;6269415;22;20159;-76
2022/05/29 21:50:06;;;;;;;2.53;1.33;;;;;;;;;;6290844;22;19995;-77
2022/05/29 21:53:00;;;;;;;3.75;1.35;;;;;;;;;;6292419;22;20008;-76
2022/05/29 21:56:13;;;;;;;2.13;1.17;;;;;;;;;;6270002;22;20014;-76
2022/05/29 21:59:05;;;;;;;4.20;1.30;;;;;;;;;;6296134;22;20012;-76
2022/05/29 22:02:05;;;;;;;2.08;1.50;;;;;;;;;;6300090;22;20020;-76
2022/05/29 22:05:24;;;;;;;3.13;1.40;;;;;;;;;;6296031;22;20004;-77
2022/05/29 22:08:23;;;;;;;1.83;1.25;;;;;;;;;;6258872;23;20000;-77
2022/05/29 22:10:55;;;;;;;3.22;1.40;;;;;;;;;;6270862;22;20070;-77
2022/05/29 22:13:45;;;;;;;1.80;1.70;;;;;;;;;;6273337;22;20385;-76
2022/05/29 22:16:50;;;;;;;1.83;1.73;;;;;;;;;;6258241;22;20320;-76
2022/05/29 22:19:29;;;;;;;1.60;1.50;;;;;;;;;;6251649;22;20015;-77
2022/05/29 22:22:03;;;;;;;2.15;1.67;;;;;;;;;;6252805;23;20031;-76
2022/05/29 22:24:31;;;;;;;1.73;1.63;;;;;;;;;;6249645;22;20367;-75
2022/05/29 22:27:22;;;;;;;1.13;1.02;;;;;;;;;;6270784;22;20035;-76
2022/05/29 22:29:48;;;;;;;1.65;1.55;;;;;;;;;;6277687;22;20004;-81
2022/05/29 22:32:55;;;;;;;2.78;1.60;;;;;;;;;;6277641;22;20442;-82
